createdAt,value
2019-05-26T00:01:59.159Z,99.90
2019-05-26T00:04:28.803Z,99.90
2019-05-26T00:06:58.133Z,99.90
2019-05-26T00:09:27.385Z,99.90
2019-05-26T00:11:56.754Z,99.90
2019-05-26T00:14:26.506Z,99.90
2019-05-26T00:16:55.765Z,99.90
2019-05-26T00:19:25.015Z,99.90
2019-05-26T00:21:54.338Z,99.90
2019-05-26T00:24:23.655Z,99.90
2019-05-26T00:26:52.957Z,99.90
2019-05-26T00:29:22.694Z,99.90
2019-05-26T00:31:51.934Z,99.90
2019-05-26T00:34:21.279Z,99.90
2019-05-26T00:36:50.506Z,99.90
2019-05-26T00:39:19.755Z,99.90
2019-05-26T00:41:49.182Z,99.90
2019-05-26T00:44:18.467Z,99.90
2019-05-26T00:46:47.700Z,99.90
2019-05-26T00:49:16.925Z,99.90
2019-05-26T00:51:46.207Z,99.90
2019-05-26T00:54:15.455Z,99.90
2019-05-26T00:56:44.732Z,99.90
2019-05-26T00:59:13.947Z,99.90
2019-05-26T01:01:43.208Z,99.90
2019-05-26T01:04:12.446Z,99.90
2019-05-26T01:06:41.681Z,99.90
2019-05-26T01:09:10.918Z,99.90
2019-05-26T01:11:40.161Z,99.90
2019-05-26T01:14:09.415Z,99.90
2019-05-26T01:16:39.015Z,99.90
2019-05-26T01:19:08.359Z,99.90
2019-05-26T01:21:37.600Z,99.90
2019-05-26T01:24:06.921Z,99.90
2019-05-26T01:26:36.202Z,99.90
2019-05-26T01:29:05.444Z,99.90
2019-05-26T01:31:34.678Z,99.90
2019-05-26T01:34:03.922Z,99.90
2019-05-26T01:36:33.351Z,99.90
2019-05-26T01:39:02.782Z,99.90
2019-05-26T01:41:32.015Z,99.90
2019-05-26T01:44:01.274Z,99.90
2019-05-26T01:46:30.519Z,99.90
2019-05-26T01:48:59.769Z,99.90
2019-05-26T01:51:28.997Z,99.90
2019-05-26T01:53:58.265Z,99.90
2019-05-26T01:56:27.518Z,99.90
2019-05-26T01:58:56.761Z,99.90
2019-05-26T02:01:26.109Z,99.90
2019-05-26T02:03:55.422Z,99.90
2019-05-26T02:06:24.749Z,99.90
2019-05-26T02:08:54.007Z,99.90
2019-05-26T02:11:23.267Z,99.90
2019-05-26T02:13:52.512Z,99.90
2019-05-26T02:16:21.737Z,99.90
2019-05-26T02:18:50.999Z,99.90
2019-05-26T02:21:20.648Z,99.90
2019-05-26T02:23:49.950Z,99.90
2019-05-26T02:26:19.178Z,99.90
2019-05-26T02:28:48.454Z,99.90
2019-05-26T02:31:17.683Z,99.90
2019-05-26T02:33:46.945Z,99.90
2019-05-26T02:36:16.227Z,99.90
2019-05-26T02:39:01.046Z,99.90
2019-05-26T02:41:16.443Z,99.90
2019-05-26T02:43:45.795Z,99.90
2019-05-26T02:46:15.039Z,99.90
2019-05-26T02:48:44.285Z,99.90
2019-05-26T02:51:14.002Z,99.90
2019-05-26T02:53:43.262Z,99.90
2019-05-26T02:56:12.498Z,99.90
2019-05-26T02:58:41.807Z,99.90
2019-05-26T03:01:11.234Z,99.90
2019-05-26T03:03:40.437Z,99.90
2019-05-26T03:06:10.577Z,99.90
2019-05-26T03:08:41.005Z,99.90
2019-05-26T03:11:12.359Z,99.90
2019-05-26T03:13:44.773Z,99.90
2019-05-26T03:16:16.211Z,99.90
2019-05-26T03:18:47.756Z,99.90
2019-05-26T03:21:19.947Z,99.90
2019-05-26T03:23:52.202Z,99.90
2019-05-26T03:26:21.396Z,99.90
2019-05-26T03:28:50.610Z,99.90
2019-05-26T03:31:19.872Z,99.90
2019-05-26T03:33:49.088Z,99.90
2019-05-26T03:36:18.319Z,99.90
2019-05-26T03:38:47.556Z,99.90
2019-05-26T03:41:16.804Z,99.90
2019-05-26T03:43:46.101Z,99.90
2019-05-26T03:46:19.754Z,99.90
2019-05-26T03:48:49.497Z,99.90
2019-05-26T03:51:18.895Z,99.90
2019-05-26T03:53:48.206Z,99.90
2019-05-26T03:56:17.426Z,99.90
2019-05-26T03:58:46.677Z,99.90
2019-05-26T04:01:15.921Z,99.90
2019-05-26T04:03:45.161Z,99.90
2019-05-26T04:06:14.378Z,99.90
2019-05-26T04:08:43.686Z,99.90
2019-05-26T04:11:12.925Z,99.90
2019-05-26T04:13:42.233Z,99.90
2019-05-26T04:16:11.478Z,99.90
2019-05-26T04:18:40.722Z,99.90
2019-05-26T04:21:09.982Z,99.90
2019-05-26T04:23:39.272Z,99.90
2019-05-26T04:26:08.520Z,99.90
2019-05-26T04:28:37.750Z,99.90
2019-05-26T04:31:07.001Z,99.90
2019-05-26T04:33:36.248Z,99.90
2019-05-26T04:36:05.661Z,99.90
2019-05-26T04:38:34.890Z,99.90
2019-05-26T04:41:04.215Z,99.90
2019-05-26T04:43:33.492Z,99.90
2019-05-26T04:46:02.747Z,99.90
2019-05-26T04:48:32.011Z,99.90
2019-05-26T04:51:01.341Z,99.90
2019-05-26T04:53:30.650Z,99.90
2019-05-26T04:55:59.917Z,99.90
2019-05-26T04:58:29.152Z,99.90
2019-05-26T05:00:58.453Z,99.90
2019-05-26T05:03:27.779Z,99.90
2019-05-26T05:05:57.014Z,99.90
2019-05-26T05:08:26.340Z,99.90
2019-05-26T05:10:55.580Z,99.90
2019-05-26T05:13:25.139Z,99.90
2019-05-26T05:15:55.106Z,99.90
2019-05-26T05:18:24.379Z,99.90
2019-05-26T05:20:53.623Z,99.90
2019-05-26T05:23:22.871Z,99.90
2019-05-26T05:25:52.115Z,99.90
2019-05-26T05:28:21.407Z,99.90
2019-05-26T05:30:50.637Z,99.90
2019-05-26T05:33:19.888Z,99.90
2019-05-26T05:35:49.163Z,99.90
2019-05-26T05:38:18.612Z,99.90
2019-05-26T05:40:59.077Z,99.90
2019-05-26T05:43:18.896Z,99.90
2019-05-26T05:45:48.134Z,99.90
2019-05-26T05:48:18.230Z,99.90
2019-05-26T05:50:47.507Z,99.90
2019-05-26T05:53:16.856Z,99.90
2019-05-26T05:55:46.604Z,99.90
2019-05-26T05:58:15.860Z,99.90
2019-05-26T06:00:45.085Z,99.90
2019-05-26T06:03:14.321Z,99.90
2019-05-26T06:05:43.693Z,99.90
2019-05-26T06:08:12.935Z,99.90
2019-05-26T06:10:42.286Z,99.90
2019-05-26T06:13:11.644Z,99.90
2019-05-26T06:15:40.885Z,99.90
2019-05-26T06:18:10.110Z,99.90
2019-05-26T06:20:39.382Z,99.90
2019-05-26T06:23:08.654Z,99.90
2019-05-26T06:25:38.075Z,99.90
2019-05-26T06:28:07.335Z,99.90
2019-05-26T06:30:36.589Z,99.90
2019-05-26T06:33:05.925Z,99.90
2019-05-26T06:35:35.163Z,99.90
2019-05-26T06:38:04.551Z,99.90
2019-05-26T06:40:33.786Z,99.90
2019-05-26T06:43:04.303Z,99.90
2019-05-26T06:45:33.888Z,99.90
2019-05-26T06:48:03.222Z,99.90
2019-05-26T06:50:42.380Z,99.90
2019-05-26T06:53:11.480Z,99.90
2019-05-26T06:55:40.847Z,99.90
2019-05-26T06:58:10.137Z,99.90
2019-05-26T07:00:41.227Z,99.90
2019-05-26T07:03:10.457Z,99.90
2019-05-26T07:05:39.820Z,99.90
2019-05-26T07:08:09.218Z,99.90
2019-05-26T07:10:39.186Z,99.90
2019-05-26T07:13:11.109Z,99.90
2019-05-26T07:15:40.477Z,99.90
2019-05-26T07:18:09.794Z,99.90
2019-05-26T07:20:39.038Z,99.90
2019-05-26T07:23:09.020Z,99.90
2019-05-26T07:25:38.873Z,99.90
2019-05-26T07:28:08.151Z,99.90
2019-05-26T07:30:37.766Z,99.90
2019-05-26T07:33:07.077Z,99.90
2019-05-26T07:35:36.410Z,99.70
2019-05-26T07:38:05.649Z,98.60
2019-05-26T07:40:34.933Z,96.70
2019-05-26T07:43:04.311Z,98.30
2019-05-26T07:45:33.658Z,98.40
2019-05-26T07:48:02.969Z,96.80
2019-05-26T07:50:32.318Z,98.80
2019-05-26T07:53:01.670Z,97.20
2019-05-26T07:55:31.876Z,96.80
2019-05-26T07:58:01.172Z,96.00
2019-05-26T08:00:30.674Z,96.60
2019-05-26T08:02:59.988Z,97.00
2019-05-26T08:05:29.248Z,96.70
2019-05-26T08:08:12.026Z,97.70
2019-05-26T08:10:29.636Z,96.80
2019-05-26T08:12:58.961Z,96.60
2019-05-26T08:15:28.243Z,95.60
2019-05-26T08:17:57.628Z,94.10
2019-05-26T08:20:26.986Z,95.70
2019-05-26T08:22:56.239Z,95.30
2019-05-26T08:25:25.565Z,97.10
2019-05-26T08:27:54.833Z,96.30
2019-05-26T08:30:24.137Z,96.50
2019-05-26T08:32:53.411Z,96.70
2019-05-26T08:35:22.770Z,96.50
2019-05-26T08:37:52.128Z,95.90
2019-05-26T08:40:21.362Z,96.90
2019-05-26T08:42:52.421Z,97.30
2019-05-26T08:45:22.919Z,95.50
2019-05-26T08:47:52.382Z,96.50
2019-05-26T08:50:22.375Z,95.60
2019-05-26T08:52:51.799Z,95.90
2019-05-26T08:55:23.089Z,95.70
2019-05-26T08:57:52.280Z,94.80
2019-05-26T09:00:22.314Z,95.20
2019-05-26T09:02:51.697Z,95.10
2019-05-26T09:05:21.884Z,95.00
2019-05-26T09:07:51.277Z,93.90
2019-05-26T09:10:20.748Z,93.90
2019-05-26T09:13:00.426Z,94.00
2019-05-26T09:15:21.348Z,93.60
2019-05-26T09:17:50.779Z,95.00
2019-05-26T09:20:21.135Z,93.30
2019-05-26T09:22:50.548Z,93.60
2019-05-26T09:25:19.738Z,93.90
2019-05-26T09:27:49.067Z,93.40
2019-05-26T09:30:18.812Z,93.60
2019-05-26T09:32:48.124Z,94.40
2019-05-26T09:35:17.462Z,93.20
2019-05-26T09:37:47.122Z,93.00
2019-05-26T09:40:17.035Z,92.40
2019-05-26T09:42:46.779Z,92.60
2019-05-26T09:45:16.277Z,92.00
2019-05-26T09:47:47.516Z,93.40
2019-05-26T09:50:17.365Z,92.60
2019-05-26T09:52:46.659Z,92.40
2019-05-26T09:55:16.084Z,92.40
2019-05-26T09:57:45.415Z,93.60
2019-05-26T10:00:16.149Z,92.50
2019-05-26T10:02:47.289Z,92.70
2019-05-26T10:05:16.770Z,90.90
2019-05-26T10:07:46.289Z,90.60
2019-05-26T10:10:15.791Z,90.10
2019-05-26T10:12:45.132Z,90.20
2019-05-26T10:15:14.813Z,91.40
2019-05-26T10:17:44.453Z,90.00
2019-05-26T10:20:14.419Z,86.90
2019-05-26T10:22:43.786Z,88.30
2019-05-26T10:25:13.138Z,83.00
2019-05-26T10:27:42.416Z,88.30
2019-05-26T10:30:14.868Z,87.60
2019-05-26T10:32:44.476Z,89.80
2019-05-26T10:35:14.501Z,89.00
2019-05-26T10:37:44.661Z,85.40
2019-05-26T10:40:16.335Z,87.30
2019-05-26T10:42:45.939Z,87.50
2019-05-26T10:45:15.891Z,88.40
2019-05-26T10:47:45.233Z,85.70
2019-05-26T10:50:15.339Z,88.30
2019-05-26T10:52:45.812Z,87.70
2019-05-26T10:55:16.944Z,88.90
2019-05-26T10:57:46.648Z,87.20
2019-05-26T11:00:16.824Z,84.60
2019-05-26T11:02:46.126Z,84.90
2019-05-26T11:05:16.465Z,86.90
2019-05-26T11:07:45.787Z,83.40
2019-05-26T11:10:17.379Z,83.40
2019-05-26T11:12:46.712Z,81.80
2019-05-26T11:15:16.377Z,78.50
2019-05-26T11:17:45.674Z,78.90
2019-05-26T11:20:17.992Z,79.70
2019-05-26T11:22:47.427Z,80.80
2019-05-26T11:25:17.354Z,79.00
2019-05-26T11:27:46.712Z,81.40
2019-05-26T11:30:16.964Z,79.00
2019-05-26T11:32:46.342Z,74.50
2019-05-26T11:35:16.621Z,75.00
2019-05-26T11:37:45.921Z,76.00
2019-05-26T11:40:15.403Z,72.00
2019-05-26T11:42:45.353Z,73.20
2019-05-26T11:45:16.527Z,64.30
2019-05-26T11:47:45.891Z,68.70
2019-05-26T11:50:15.533Z,70.50
2019-05-26T11:52:44.827Z,70.20
2019-05-26T11:55:15.140Z,72.20
2019-05-26T11:57:44.411Z,70.60
2019-05-26T12:00:16.733Z,72.20
2019-05-26T12:02:46.768Z,76.50
2019-05-26T12:05:17.931Z,72.00
2019-05-26T12:07:47.423Z,72.50
2019-05-26T12:10:16.858Z,74.00
2019-05-26T12:12:46.182Z,73.30
2019-05-26T12:15:16.522Z,71.90
2019-05-26T12:17:45.768Z,74.00
2019-05-26T12:20:15.130Z,74.10
2019-05-26T12:22:44.443Z,77.90
2019-05-26T12:25:13.911Z,76.90
2019-05-26T12:27:43.162Z,74.70
2019-05-26T12:30:13.464Z,75.80
2019-05-26T12:32:43.111Z,72.90
2019-05-26T12:35:12.488Z,69.10
2019-05-26T12:37:41.781Z,69.30
2019-05-26T12:40:13.055Z,70.00
2019-05-26T12:42:42.338Z,71.90
2019-05-26T12:45:13.535Z,66.00
2019-05-26T12:47:42.828Z,69.40
2019-05-26T12:50:12.536Z,66.10
2019-05-26T12:52:41.859Z,64.20
2019-05-26T12:55:11.106Z,65.70
2019-05-26T12:57:40.421Z,61.70
2019-05-26T13:00:10.513Z,65.00
2019-05-26T13:02:39.790Z,65.10
2019-05-26T13:05:09.346Z,62.90
2019-05-26T13:07:39.258Z,60.50
2019-05-26T13:10:10.571Z,58.00
2019-05-26T13:12:40.095Z,59.20
2019-05-26T13:15:10.854Z,60.70
2019-05-26T13:17:40.210Z,57.40
2019-05-26T13:20:10.617Z,60.10
2019-05-26T13:22:40.989Z,58.60
2019-05-26T13:25:11.644Z,56.90
2019-05-26T13:27:40.909Z,57.80
2019-05-26T13:30:11.848Z,53.80
2019-05-26T13:32:41.181Z,55.40
2019-05-26T13:35:11.029Z,55.50
2019-05-26T13:37:40.322Z,53.80
2019-05-26T13:40:10.155Z,56.10
2019-05-26T13:42:39.389Z,54.90
2019-05-26T13:45:21.752Z,56.70
2019-05-26T13:47:40.315Z,53.00
2019-05-26T13:50:10.092Z,54.80
2019-05-26T13:52:39.391Z,52.50
2019-05-26T13:55:10.957Z,53.90
2019-05-26T13:57:40.199Z,53.70
2019-05-26T14:00:10.699Z,53.40
2019-05-26T14:02:39.995Z,54.60
2019-05-26T14:05:10.565Z,55.40
2019-05-26T14:07:39.818Z,55.10
2019-05-26T14:10:09.473Z,52.50
2019-05-26T14:12:38.726Z,55.10
2019-05-26T14:15:09.168Z,55.10
2019-05-26T14:17:39.795Z,55.20
2019-05-26T14:20:10.145Z,54.50
2019-05-26T14:22:39.354Z,54.00
2019-05-26T14:25:09.443Z,55.10
2019-05-26T14:27:38.686Z,56.00
2019-05-26T14:30:08.411Z,55.70
2019-05-26T14:32:37.717Z,55.20
2019-05-26T14:35:07.000Z,55.30
2019-05-26T14:37:36.859Z,54.80
2019-05-26T14:40:06.150Z,54.80
2019-05-26T14:42:35.674Z,55.00
2019-05-26T14:45:05.263Z,56.40
2019-05-26T14:47:34.563Z,55.20
2019-05-26T14:50:03.967Z,55.20
2019-05-26T14:52:33.207Z,55.50
2019-05-26T14:55:02.505Z,56.60
2019-05-26T14:57:31.780Z,58.20
2019-05-26T15:00:01.598Z,56.40
2019-05-26T15:02:30.950Z,56.10
2019-05-26T15:05:00.276Z,56.20
2019-05-26T15:07:29.550Z,55.80
2019-05-26T15:09:58.795Z,57.50
2019-05-26T15:12:28.045Z,57.70
2019-05-26T15:14:57.971Z,57.10
2019-05-26T15:17:27.187Z,57.00
2019-05-26T15:19:56.510Z,57.20
2019-05-26T15:22:25.933Z,56.50
2019-05-26T15:24:55.216Z,57.20
2019-05-26T15:27:24.553Z,57.50
2019-05-26T15:29:53.769Z,58.90
2019-05-26T15:32:23.019Z,59.50
2019-05-26T15:34:52.623Z,61.70
2019-05-26T15:37:21.867Z,60.90
2019-05-26T15:39:51.151Z,60.70
2019-05-26T15:42:20.593Z,61.40
2019-05-26T15:44:49.885Z,63.30
2019-05-26T15:47:19.219Z,59.90
2019-05-26T15:49:48.510Z,61.30
2019-05-26T15:52:17.829Z,62.80
2019-05-26T15:54:47.083Z,62.90
2019-05-26T15:57:16.401Z,63.90
2019-05-26T15:59:45.767Z,62.40
2019-05-26T16:02:15.114Z,62.60
2019-05-26T16:04:45.659Z,63.60
2019-05-26T16:07:15.094Z,65.00
2019-05-26T16:09:44.422Z,63.30
2019-05-26T16:12:13.725Z,66.20
2019-05-26T16:14:42.961Z,65.40
2019-05-26T16:17:12.683Z,65.60
2019-05-26T16:19:41.946Z,64.50
2019-05-26T16:22:11.188Z,64.70
2019-05-26T16:24:40.718Z,64.10
2019-05-26T16:27:19.041Z,67.40
2019-05-26T16:29:41.563Z,66.00
2019-05-26T16:32:11.183Z,65.80
2019-05-26T16:34:40.502Z,65.70
2019-05-26T16:37:09.760Z,66.90
2019-05-26T16:39:39.083Z,68.00
2019-05-26T16:42:08.396Z,67.40
2019-05-26T16:44:38.324Z,68.30
2019-05-26T16:47:07.629Z,67.40
2019-05-26T16:49:36.867Z,69.80
2019-05-26T16:52:06.300Z,69.00
2019-05-26T16:54:35.707Z,68.40
2019-05-26T16:57:05.123Z,69.60
2019-05-26T16:59:34.352Z,69.80
2019-05-26T17:02:03.658Z,69.50
2019-05-26T17:04:33.015Z,69.60
2019-05-26T17:07:02.634Z,68.70
2019-05-26T17:09:32.193Z,69.90
2019-05-26T17:12:01.382Z,69.50
2019-05-26T17:14:30.660Z,70.00
2019-05-26T17:17:13.642Z,70.50
2019-05-26T17:19:31.200Z,70.30
2019-05-26T17:22:00.992Z,72.10
2019-05-26T17:24:30.192Z,72.30
2019-05-26T17:26:59.576Z,73.60
2019-05-26T17:29:28.862Z,73.30
2019-05-26T17:31:58.127Z,75.00
2019-05-26T17:34:27.478Z,75.00
2019-05-26T17:36:57.251Z,76.30
2019-05-26T17:39:26.566Z,77.60
2019-05-26T17:41:55.813Z,78.00
2019-05-26T17:44:25.213Z,78.80
2019-05-26T17:46:55.081Z,79.90
2019-05-26T17:49:24.366Z,80.60
2019-05-26T17:51:53.642Z,81.30
2019-05-26T17:54:22.968Z,82.60
2019-05-26T17:56:52.325Z,83.10
2019-05-26T17:59:22.167Z,83.90
2019-05-26T18:01:51.511Z,84.50
2019-05-26T18:04:20.758Z,86.20
2019-05-26T18:06:50.084Z,91.50
2019-05-26T18:09:19.353Z,91.80
2019-05-26T18:11:48.651Z,91.60
2019-05-26T18:14:17.999Z,91.90
2019-05-26T18:16:47.286Z,92.80
2019-05-26T18:19:16.641Z,93.50
2019-05-26T18:21:45.963Z,94.00
2019-05-26T18:24:15.218Z,94.60
2019-05-26T18:26:45.216Z,95.00
2019-05-26T18:29:16.298Z,95.70
2019-05-26T18:31:46.148Z,96.20
2019-05-26T18:34:16.124Z,96.30
2019-05-26T18:36:45.508Z,96.80
2019-05-26T18:39:14.837Z,96.60
2019-05-26T18:41:44.083Z,96.80
2019-05-26T18:44:16.015Z,97.60
2019-05-26T18:46:45.422Z,98.20
2019-05-26T18:49:14.803Z,98.60
2019-05-26T18:51:44.222Z,99.20
2019-05-26T18:54:13.487Z,99.90
2019-05-26T18:56:42.759Z,99.70
2019-05-26T18:59:12.564Z,99.90
2019-05-26T19:01:41.961Z,99.90
2019-05-26T19:04:11.325Z,99.90
2019-05-26T19:06:40.578Z,99.90
2019-05-26T19:09:09.988Z,99.90
2019-05-26T19:11:39.237Z,99.90
2019-05-26T19:14:08.519Z,99.90
2019-05-26T19:16:37.828Z,99.90
2019-05-26T19:19:07.144Z,99.90
2019-05-26T19:21:36.799Z,99.90
2019-05-26T19:24:06.134Z,99.90
2019-05-26T19:26:35.466Z,99.90
2019-05-26T19:29:04.796Z,99.90
2019-05-26T19:31:34.128Z,99.90
2019-05-26T19:34:03.511Z,99.90
2019-05-26T19:36:32.761Z,99.90
2019-05-26T19:39:02.024Z,99.90
2019-05-26T19:41:31.328Z,99.90
2019-05-26T19:44:00.624Z,99.90
2019-05-26T19:46:30.290Z,99.90
2019-05-26T19:48:59.687Z,99.90
2019-05-26T19:51:29.042Z,99.90
2019-05-26T19:53:58.347Z,99.90
2019-05-26T19:56:27.709Z,99.90
2019-05-26T19:58:56.922Z,99.90
2019-05-26T20:01:26.295Z,99.90
2019-05-26T20:03:55.589Z,99.90
2019-05-26T20:06:24.983Z,99.90
2019-05-26T20:08:54.354Z,99.90
2019-05-26T20:11:23.786Z,99.90
2019-05-26T20:13:53.165Z,99.90
2019-05-26T20:16:22.527Z,99.90
2019-05-26T20:18:51.863Z,99.90
2019-05-26T20:21:21.183Z,99.90
2019-05-26T20:23:50.389Z,99.90
2019-05-26T20:26:20.164Z,99.90
2019-05-26T20:28:49.427Z,99.90
2019-05-26T20:31:18.753Z,99.90
2019-05-26T20:33:47.998Z,99.90
2019-05-26T20:36:17.247Z,99.90
2019-05-26T20:38:47.362Z,99.90
2019-05-26T20:41:16.708Z,99.90
2019-05-26T20:43:45.982Z,99.90
2019-05-26T20:46:15.371Z,99.90
2019-05-26T20:48:44.981Z,99.90
2019-05-26T20:51:14.325Z,99.90
2019-05-26T20:53:43.706Z,99.90
2019-05-26T20:56:13.112Z,99.90
2019-05-26T20:58:42.375Z,99.90
2019-05-26T21:01:11.647Z,99.90
2019-05-26T21:03:41.174Z,99.90
2019-05-26T21:06:10.438Z,99.90
2019-05-26T21:08:39.715Z,99.90
2019-05-26T21:11:08.960Z,99.90
2019-05-26T21:13:38.342Z,99.90
2019-05-26T21:16:07.869Z,99.90
2019-05-26T21:18:37.173Z,99.90
2019-05-26T21:21:06.446Z,99.90
2019-05-26T21:23:35.747Z,99.90
2019-05-26T21:26:05.029Z,99.90
2019-05-26T21:28:34.279Z,99.90
2019-05-26T21:31:03.558Z,99.90
2019-05-26T21:33:33.000Z,99.90
2019-05-26T21:36:03.018Z,99.90
2019-05-26T21:38:32.272Z,99.90
2019-05-26T21:41:01.507Z,99.90
2019-05-26T21:43:30.848Z,99.90
2019-05-26T21:46:00.146Z,99.90
2019-05-26T21:48:29.395Z,99.90
2019-05-26T21:50:59.034Z,99.90
2019-05-26T21:53:28.285Z,99.90
2019-05-26T21:55:57.535Z,99.90
2019-05-26T21:58:26.803Z,99.90
2019-05-26T22:00:56.126Z,99.90
2019-05-26T22:03:25.365Z,99.90
2019-05-26T22:05:55.078Z,99.90
2019-05-26T22:08:24.451Z,99.90
2019-05-26T22:10:53.720Z,99.90
2019-05-26T22:13:24.430Z,99.90
2019-05-26T22:15:53.718Z,99.90
2019-05-26T22:18:22.983Z,99.90
2019-05-26T22:20:52.221Z,99.90
2019-05-26T22:23:21.558Z,99.90
2019-05-26T22:25:50.808Z,99.90
2019-05-26T22:28:20.135Z,99.90
2019-05-26T22:30:49.495Z,99.90
2019-05-26T22:33:18.747Z,99.90
2019-05-26T22:35:48.045Z,99.90
2019-05-26T22:38:17.351Z,99.90
2019-05-26T22:40:46.730Z,99.90
2019-05-26T22:43:15.988Z,99.90
2019-05-26T22:45:45.222Z,99.90
2019-05-26T22:48:14.590Z,99.90
2019-05-26T22:50:43.837Z,99.90
2019-05-26T22:53:13.098Z,99.90
2019-05-26T22:55:42.365Z,99.90
2019-05-26T22:58:11.621Z,99.90
2019-05-26T23:00:41.048Z,99.90
2019-05-26T23:03:12.479Z,99.90
2019-05-26T23:05:41.712Z,99.90
2019-05-26T23:08:11.055Z,99.90
2019-05-26T23:10:40.330Z,99.90
2019-05-26T23:13:09.568Z,99.90
2019-05-26T23:15:38.874Z,99.90
2019-05-26T23:18:08.224Z,99.90
2019-05-26T23:20:37.503Z,99.90
2019-05-26T23:23:06.813Z,99.90
2019-05-26T23:25:36.131Z,99.90
2019-05-26T23:28:05.386Z,99.90
2019-05-26T23:30:34.729Z,99.90
2019-05-26T23:33:04.574Z,99.90
2019-05-26T23:35:33.823Z,99.90
2019-05-26T23:38:03.148Z,99.90
2019-05-26T23:40:32.497Z,99.90
2019-05-26T23:43:02.026Z,99.90
2019-05-26T23:45:31.251Z,99.90
2019-05-26T23:48:02.654Z,99.90
2019-05-26T23:50:31.836Z,99.90
2019-05-26T23:53:01.095Z,99.90
2019-05-26T23:55:30.331Z,99.90
2019-05-26T23:58:00.270Z,99.90
